• Join FlightAware (Why Join?)
  • Login
  • US Flag 
04:08PM EST


 

Airport Tracker/Info


-or-


 

Live Flight TrackerFlight Track Log ✈ N465TP ✈ 27-Aug-2013 ✈ KCOD - KCPR

Flight Track Log - Related Links

Times and Time Zones

All times are in EDT time to prevent confusion due to time zone crossing. See the N465TP flight status page for this flight to view local times or setup timezone preferences in your user account.

Time Position Orientation Groundspeed Altitude Reporting Facility
EDT Latitude Longitude Course Direction KTS MPH feet Rate Location/Type
10:12AM 44.4117 -108.8908 131° Southeast 165 190 9,600  Level Salt Lake Center
10:13AM 44.3794 -108.8386 131° Southeast 172 198 10,800 1,260 Climbing Salt Lake Center
10:14AM 44.3408 -108.7753 130° Southeast 176 203 12,200 1,200 Climbing Salt Lake Center
10:15AM 44.3097 -108.7222 129° Southeast 177 204 13,300 1,020 Climbing Salt Lake Center
10:16AM 44.2764 -108.6689 131° Southeast 179 206 14,400 1,020 Climbing Salt Lake Center
10:17AM 44.2433 -108.6114 129° Southeast 184 212 15,500 1,020 Climbing Salt Lake Center
10:18AM 44.2103 -108.5564 130° Southeast 186 214 16,600 960 Climbing Salt Lake Center
10:19AM 44.1764 -108.5000 130° Southeast 189 217 17,600 900 Climbing Salt Lake Center
10:20AM 44.1417 -108.4425 130° Southeast 193 222 18,500 660 Climbing Salt Lake Center
10:21AM 44.0972 -108.3722 131° Southeast 199 229 19,000 240 Climbing Salt Lake Center
10:22AM 44.0556 -108.3022 130° Southeast 224 258 19,000  Level Salt Lake Center
10:23AM 44.0114 -108.2306 131° Southeast 239 275 19,000 -60 Level Salt Lake Center
10:24AM 43.9697 -108.1606 130° Southeast 239 275 18,900  Descending Salt Lake Center
10:25AM 43.9275 -108.0903 130° Southeast 239 275 19,000  Climbing Salt Lake Center
10:26AM 43.8828 -108.0197 131° Southeast 243 280 18,900 -60 Descending Salt Lake Center
10:27AM 43.8303 -107.9350 131° Southeast 243 280 18,900  Level Salt Lake Center
10:28AM 43.7869 -107.8633 130° Southeast 243 280 19,000  Climbing Salt Lake Center
10:30AM 43.7422 -107.7897 130° Southeast 250 288 19,000  Level Salt Lake Center
10:31AM 43.6978 -107.7197 131° Southeast 245 282 19,000  Level Salt Lake Center
10:32AM 43.6533 -107.6458 130° Southeast 251 289 19,000  Level Salt Lake Center
10:33AM 43.6100 -107.5750 130° Southeast 244 281 19,000  Level Salt Lake Center
10:34AM 43.5567 -107.4917 131° Southeast 243 280 19,000  Level Salt Lake Center
10:35AM 43.5117 -107.4208 131° Southeast 246 283 19,000  Level Salt Lake Center
10:36AM 43.4683 -107.3486 130° Southeast 246 283 19,000  Level Salt Lake Center
10:37AM 43.4228 -107.2775 131° Southeast 248 285 19,000  Level Salt Lake Center
10:38AM 43.3778 -107.2061 131° Southeast 248 285 19,000 -60 Level Salt Lake Center
10:39AM 43.3333 -107.1358 131° Southeast 245 282 18,900  Descending Salt Lake Center
10:40AM 43.2800 -107.0489 130° Southeast 249 287 19,000 -180 Climbing Salt Lake Center
10:41AM 43.2350 -106.9775 131° Southeast 249 287 18,600 -660 Descending Salt Lake Center
10:42AM 43.1953 -106.9144 131° Southeast 239 275 17,700 -1,140 Descending Salt Lake Center
10:43AM 43.1436 -106.8400 134° Southeast 239 275 16,300 -1,440 Descending Salt Lake Center
10:44AM 43.1047 -106.7744 129° Southeast 234 269 14,800 -1,620 Descending Salt Lake Center
10:45AM 43.0564 -106.7022 132° Southeast 231 266 13,000 -1,680 Descending Salt Lake Center
10:46AM 43.0142 -106.6397 133° Southeast 233 268 11,300 -1,920 Descending Salt Lake Center
10:47AM 42.9806 -106.5597 120° Southeast 224 258 9,100 -2,040 Descending Salt Lake Center
10:48AM 42.9633 -106.4853 108° East 218 251 7,200 -1,020 Descending Salt Lake Center
10:49AM 42.9447 -106.4169 110° East 217 250 7,000 -240 Descending Salt Lake Center
10:51AM 42.9000 -106.4500 132° Southeast  Level FlightAware Approximate